sensor_id;sensor_type;location;lat;lon;timestamp;P1;durP1;ratioP1;P2;durP2;ratioP2
16502;SDS011;53067;48.114;11.694;2022-07-23T00:00:53;5.83;;;5.42;;
16502;SDS011;53067;48.114;11.694;2022-07-23T00:03:21;5.53;;;5.12;;
16502;SDS011;53067;48.114;11.694;2022-07-23T00:05:49;6.05;;;5.65;;
16502;SDS011;53067;48.114;11.694;2022-07-23T00:08:16;6.72;;;6.12;;
16502;SDS011;53067;48.114;11.694;2022-07-23T00:10:44;6.22;;;5.72;;
16502;SDS011;53067;48.114;11.694;2022-07-23T00:13:11;5.62;;;5.22;;
16502;SDS011;53067;48.114;11.694;2022-07-23T00:15:39;5.85;;;5.45;;
16502;SDS011;53067;48.114;11.694;2022-07-23T00:18:07;5.70;;;5.30;;
16502;SDS011;53067;48.114;11.694;2022-07-23T00:20:34;6.12;;;5.72;;
16502;SDS011;53067;48.114;11.694;2022-07-23T00:23:02;5.83;;;5.40;;
16502;SDS011;53067;48.114;11.694;2022-07-23T00:25:29;5.53;;;5.12;;
16502;SDS011;53067;48.114;11.694;2022-07-23T00:27:57;5.92;;;5.42;;
16502;SDS011;53067;48.114;11.694;2022-07-23T00:30:26;5.95;;;5.45;;
16502;SDS011;53067;48.114;11.694;2022-07-23T00:35:44;5.62;;;5.22;;
16502;SDS011;53067;48.114;11.694;2022-07-23T00:38:11;5.78;;;5.37;;
16502;SDS011;53067;48.114;11.694;2022-07-23T00:40:39;5.80;;;5.40;;
16502;SDS011;53067;48.114;11.694;2022-07-23T00:43:07;5.90;;;5.50;;
16502;SDS011;53067;48.114;11.694;2022-07-23T00:45:34;6.45;;;5.95;;
16502;SDS011;53067;48.114;11.694;2022-07-23T00:48:02;5.95;;;5.40;;
16502;SDS011;53067;48.114;11.694;2022-07-23T00:50:30;6.70;;;6.10;;
16502;SDS011;53067;48.114;11.694;2022-07-23T00:52:58;6.78;;;6.28;;
16502;SDS011;53067;48.114;11.694;2022-07-23T00:55:26;5.65;;;5.25;;
16502;SDS011;53067;48.114;11.694;2022-07-23T00:57:53;5.47;;;5.08;;
16502;SDS011;53067;48.114;11.694;2022-07-23T01:00:22;5.22;;;4.85;;
16502;SDS011;53067;48.114;11.694;2022-07-23T01:02:50;5.53;;;5.12;;
16502;SDS011;53067;48.114;11.694;2022-07-23T01:05:17;5.90;;;5.50;;
16502;SDS011;53067;48.114;11.694;2022-07-23T01:07:48;5.83;;;5.28;;
16502;SDS011;53067;48.114;11.694;2022-07-23T01:10:16;5.85;;;5.45;;
16502;SDS011;53067;48.114;11.694;2022-07-23T01:13:03;6.60;;;4.65;;
16502;SDS011;53067;48.114;11.694;2022-07-23T01:15:35;5.95;;;5.45;;
16502;SDS011;53067;48.114;11.694;2022-07-23T01:18:04;5.47;;;5.08;;
16502;SDS011;53067;48.114;11.694;2022-07-23T01:20:33;6.60;;;6.10;;
16502;SDS011;53067;48.114;11.694;2022-07-23T01:23:01;6.10;;;5.70;;
16502;SDS011;53067;48.114;11.694;2022-07-23T01:25:29;6.85;;;6.17;;
16502;SDS011;53067;48.114;11.694;2022-07-23T01:27:57;7.95;;;6.35;;
16502;SDS011;53067;48.114;11.694;2022-07-23T01:30:24;7.05;;;6.53;;
16502;SDS011;53067;48.114;11.694;2022-07-23T01:32:52;7.45;;;6.75;;
16502;SDS011;53067;48.114;11.694;2022-07-23T01:35:19;8.15;;;5.92;;
16502;SDS011;53067;48.114;11.694;2022-07-23T01:37:47;8.23;;;6.62;;
16502;SDS011;53067;48.114;11.694;2022-07-23T01:40:14;6.67;;;6.12;;
16502;SDS011;53067;48.114;11.694;2022-07-23T01:42:42;7.65;;;6.47;;
16502;SDS011;53067;48.114;11.694;2022-07-23T01:45:10;7.00;;;5.17;;
16502;SDS011;53067;48.114;11.694;2022-07-23T01:47:37;9.80;;;5.42;;
16502;SDS011;53067;48.114;11.694;2022-07-23T01:50:05;5.87;;;3.85;;
16502;SDS011;53067;48.114;11.694;2022-07-23T01:52:38;7.70;;;3.70;;
16502;SDS011;53067;48.114;11.694;2022-07-23T01:55:08;3.42;;;3.17;;
16502;SDS011;53067;48.114;11.694;2022-07-23T01:57:54;3.10;;;2.90;;
16502;SDS011;53067;48.114;11.694;2022-07-23T02:00:21;3.37;;;3.08;;
16502;SDS011;53067;48.114;11.694;2022-07-23T02:02:49;4.25;;;3.50;;
16502;SDS011;53067;48.114;11.694;2022-07-23T02:05:16;4.03;;;3.72;;
16502;SDS011;53067;48.114;11.694;2022-07-23T02:07:44;3.52;;;3.22;;
16502;SDS011;53067;48.114;11.694;2022-07-23T02:10:11;3.17;;;2.98;;
16502;SDS011;53067;48.114;11.694;2022-07-23T02:12:39;2.62;;;2.45;;
16502;SDS011;53067;48.114;11.694;2022-07-23T02:15:07;3.55;;;3.25;;
16502;SDS011;53067;48.114;11.694;2022-07-23T02:17:35;3.87;;;3.50;;
16502;SDS011;53067;48.114;11.694;2022-07-23T02:20:05;3.40;;;3.10;;
16502;SDS011;53067;48.114;11.694;2022-07-23T02:22:34;3.62;;;3.35;;
16502;SDS011;53067;48.114;11.694;2022-07-23T02:25:07;3.90;;;3.40;;
16502;SDS011;53067;48.114;11.694;2022-07-23T02:27:32;3.90;;;3.52;;
16502;SDS011;53067;48.114;11.694;2022-07-23T02:30:00;3.72;;;3.42;;
16502;SDS011;53067;48.114;11.694;2022-07-23T02:32:29;4.20;;;3.50;;
16502;SDS011;53067;48.114;11.694;2022-07-23T02:34:56;3.60;;;3.30;;
16502;SDS011;53067;48.114;11.694;2022-07-23T02:37:24;2.87;;;2.52;;
16502;SDS011;53067;48.114;11.694;2022-07-23T02:39:51;2.50;;;2.30;;
16502;SDS011;53067;48.114;11.694;2022-07-23T02:42:20;2.47;;;2.37;;
16502;SDS011;53067;48.114;11.694;2022-07-23T02:44:49;3.12;;;2.83;;
16502;SDS011;53067;48.114;11.694;2022-07-23T02:47:18;2.75;;;2.55;;
16502;SDS011;53067;48.114;11.694;2022-07-23T02:49:45;2.83;;;2.55;;
16502;SDS011;53067;48.114;11.694;2022-07-23T02:52:13;3.08;;;2.80;;
16502;SDS011;53067;48.114;11.694;2022-07-23T02:54:40;3.00;;;2.80;;
16502;SDS011;53067;48.114;11.694;2022-07-23T02:57:08;3.35;;;2.85;;
16502;SDS011;53067;48.114;11.694;2022-07-23T02:59:35;2.83;;;2.62;;
16502;SDS011;53067;48.114;11.694;2022-07-23T03:04:43;5.47;;;2.90;;
16502;SDS011;53067;48.114;11.694;2022-07-23T03:07:10;2.70;;;2.50;;
16502;SDS011;53067;48.114;11.694;2022-07-23T03:09:38;3.33;;;3.12;;
16502;SDS011;53067;48.114;11.694;2022-07-23T03:12:06;3.70;;;3.37;;
16502;SDS011;53067;48.114;11.694;2022-07-23T03:14:34;4.62;;;3.45;;
16502;SDS011;53067;48.114;11.694;2022-07-23T03:17:01;3.50;;;3.30;;
16502;SDS011;53067;48.114;11.694;2022-07-23T03:19:29;3.62;;;3.27;;
16502;SDS011;53067;48.114;11.694;2022-07-23T03:21:56;3.50;;;3.30;;
16502;SDS011;53067;48.114;11.694;2022-07-23T03:24:24;3.90;;;3.60;;
16502;SDS011;53067;48.114;11.694;2022-07-23T03:26:53;4.50;;;3.70;;
16502;SDS011;53067;48.114;11.694;2022-07-23T03:29:20;4.30;;;3.90;;
16502;SDS011;53067;48.114;11.694;2022-07-23T03:31:48;4.35;;;3.75;;
16502;SDS011;53067;48.114;11.694;2022-07-23T03:34:15;4.35;;;4.05;;
16502;SDS011;53067;48.114;11.694;2022-07-23T03:36:44;3.98;;;3.72;;
16502;SDS011;53067;48.114;11.694;2022-07-23T03:39:11;4.45;;;4.05;;
16502;SDS011;53067;48.114;11.694;2022-07-23T03:41:39;4.85;;;4.30;;
16502;SDS011;53067;48.114;11.694;2022-07-23T03:44:06;4.17;;;3.87;;
16502;SDS011;53067;48.114;11.694;2022-07-23T03:46:34;4.83;;;4.10;;
16502;SDS011;53067;48.114;11.694;2022-07-23T03:49:01;4.92;;;4.42;;
16502;SDS011;53067;48.114;11.694;2022-07-23T03:51:29;4.22;;;3.92;;
16502;SDS011;53067;48.114;11.694;2022-07-23T03:53:56;4.80;;;4.37;;
16502;SDS011;53067;48.114;11.694;2022-07-23T03:56:24;4.67;;;4.28;;
16502;SDS011;53067;48.114;11.694;2022-07-23T03:58:52;4.42;;;4.12;;
16502;SDS011;53067;48.114;11.694;2022-07-23T04:01:19;4.60;;;4.30;;
16502;SDS011;53067;48.114;11.694;2022-07-23T04:03:47;5.08;;;4.05;;
16502;SDS011;53067;48.114;11.694;2022-07-23T04:06:15;4.95;;;4.50;;
16502;SDS011;53067;48.114;11.694;2022-07-23T04:08:42;4.87;;;4.47;;
16502;SDS011;53067;48.114;11.694;2022-07-23T04:11:09;4.83;;;4.53;;
16502;SDS011;53067;48.114;11.694;2022-07-23T04:13:37;5.65;;;4.90;;
16502;SDS011;53067;48.114;11.694;2022-07-23T04:16:05;5.42;;;5.03;;
16502;SDS011;53067;48.114;11.694;2022-07-23T04:18:33;5.97;;;5.47;;
16502;SDS011;53067;48.114;11.694;2022-07-23T04:21:01;6.03;;;5.45;;
16502;SDS011;53067;48.114;11.694;2022-07-23T04:23:28;4.97;;;4.67;;
16502;SDS011;53067;48.114;11.694;2022-07-23T04:25:56;5.78;;;5.37;;
16502;SDS011;53067;48.114;11.694;2022-07-23T04:28:23;5.58;;;5.08;;
16502;SDS011;53067;48.114;11.694;2022-07-23T04:30:51;5.50;;;5.10;;
16502;SDS011;53067;48.114;11.694;2022-07-23T04:33:18;5.70;;;5.20;;
16502;SDS011;53067;48.114;11.694;2022-07-23T04:35:46;5.87;;;5.37;;
16502;SDS011;53067;48.114;11.694;2022-07-23T04:38:13;5.47;;;4.87;;
16502;SDS011;53067;48.114;11.694;2022-07-23T04:40:41;5.90;;;5.35;;
16502;SDS011;53067;48.114;11.694;2022-07-23T04:43:08;5.72;;;5.22;;
16502;SDS011;53067;48.114;11.694;2022-07-23T04:45:36;5.58;;;5.03;;
16502;SDS011;53067;48.114;11.694;2022-07-23T04:48:04;5.83;;;5.33;;
16502;SDS011;53067;48.114;11.694;2022-07-23T04:50:31;6.10;;;5.58;;
16502;SDS011;53067;48.114;11.694;2022-07-23T04:52:59;5.83;;;5.42;;
16502;SDS011;53067;48.114;11.694;2022-07-23T04:55:27;5.10;;;4.70;;
16502;SDS011;53067;48.114;11.694;2022-07-23T04:57:55;5.70;;;5.30;;
16502;SDS011;53067;48.114;11.694;2022-07-23T05:00:22;6.15;;;5.55;;
16502;SDS011;53067;48.114;11.694;2022-07-23T05:02:50;6.33;;;5.80;;
16502;SDS011;53067;48.114;11.694;2022-07-23T05:07:51;5.37;;;4.87;;
16502;SDS011;53067;48.114;11.694;2022-07-23T05:10:19;5.78;;;5.28;;
16502;SDS011;53067;48.114;11.694;2022-07-23T05:12:46;6.17;;;5.67;;
16502;SDS011;53067;48.114;11.694;2022-07-23T05:15:14;5.50;;;5.10;;
16502;SDS011;53067;48.114;11.694;2022-07-23T05:17:42;5.83;;;5.42;;
16502;SDS011;53067;48.114;11.694;2022-07-23T05:20:09;6.28;;;5.70;;
16502;SDS011;53067;48.114;11.694;2022-07-23T05:22:37;5.70;;;5.30;;
16502;SDS011;53067;48.114;11.694;2022-07-23T05:25:05;5.85;;;5.45;;
16502;SDS011;53067;48.114;11.694;2022-07-23T05:27:33;5.90;;;5.50;;
16502;SDS011;53067;48.114;11.694;2022-07-23T05:30:01;5.40;;;5.00;;
16502;SDS011;53067;48.114;11.694;2022-07-23T05:32:31;5.55;;;5.15;;
16502;SDS011;53067;48.114;11.694;2022-07-23T05:34:58;5.62;;;5.25;;
16502;SDS011;53067;48.114;11.694;2022-07-23T05:37:26;5.28;;;4.87;;
16502;SDS011;53067;48.114;11.694;2022-07-23T05:39:54;6.08;;;5.67;;
16502;SDS011;53067;48.114;11.694;2022-07-23T05:42:21;6.05;;;5.58;;
16502;SDS011;53067;48.114;11.694;2022-07-23T05:44:49;5.33;;;4.95;;
16502;SDS011;53067;48.114;11.694;2022-07-23T05:47:16;5.92;;;5.53;;
16502;SDS011;53067;48.114;11.694;2022-07-23T05:49:44;5.80;;;5.33;;
16502;SDS011;53067;48.114;11.694;2022-07-23T05:52:11;5.55;;;5.15;;
16502;SDS011;53067;48.114;11.694;2022-07-23T05:54:39;5.75;;;5.28;;
16502;SDS011;53067;48.114;11.694;2022-07-23T05:57:07;6.47;;;5.97;;
16502;SDS011;53067;48.114;11.694;2022-07-23T05:59:35;5.30;;;4.95;;
16502;SDS011;53067;48.114;11.694;2022-07-23T06:02:02;5.37;;;5.08;;
16502;SDS011;53067;48.114;11.694;2022-07-23T06:04:30;6.05;;;5.65;;
16502;SDS011;53067;48.114;11.694;2022-07-23T06:06:57;6.50;;;5.62;;
16502;SDS011;53067;48.114;11.694;2022-07-23T06:09:25;5.58;;;5.10;;
16502;SDS011;53067;48.114;11.694;2022-07-23T06:11:52;5.62;;;5.15;;
16502;SDS011;53067;48.114;11.694;2022-07-23T06:14:20;5.80;;;5.35;;
16502;SDS011;53067;48.114;11.694;2022-07-23T06:16:47;5.47;;;5.08;;
16502;SDS011;53067;48.114;11.694;2022-07-23T06:19:15;5.90;;;5.50;;
16502;SDS011;53067;48.114;11.694;2022-07-23T06:21:43;6.87;;;6.17;;
16502;SDS011;53067;48.114;11.694;2022-07-23T06:24:10;6.05;;;5.65;;
16502;SDS011;53067;48.114;11.694;2022-07-23T06:26:38;6.62;;;5.95;;
16502;SDS011;53067;48.114;11.694;2022-07-23T06:29:07;6.72;;;6.22;;
16502;SDS011;53067;48.114;11.694;2022-07-23T06:31:34;7.08;;;6.35;;
16502;SDS011;53067;48.114;11.694;2022-07-23T06:34:02;7.15;;;6.55;;
16502;SDS011;53067;48.114;11.694;2022-07-23T06:36:29;7.00;;;6.50;;
16502;SDS011;53067;48.114;11.694;2022-07-23T06:38:57;7.22;;;6.62;;
16502;SDS011;53067;48.114;11.694;2022-07-23T06:41:24;6.55;;;6.15;;
16502;SDS011;53067;48.114;11.694;2022-07-23T06:43:52;7.22;;;6.62;;
16502;SDS011;53067;48.114;11.694;2022-07-23T06:46:19;6.75;;;6.15;;
16502;SDS011;53067;48.114;11.694;2022-07-23T06:48:47;7.00;;;6.40;;
16502;SDS011;53067;48.114;11.694;2022-07-23T06:51:14;6.50;;;6.00;;
16502;SDS011;53067;48.114;11.694;2022-07-23T06:53:42;6.50;;;6.00;;
16502;SDS011;53067;48.114;11.694;2022-07-23T06:56:10;6.85;;;6.25;;
16502;SDS011;53067;48.114;11.694;2022-07-23T06:58:37;6.65;;;6.10;;
16502;SDS011;53067;48.114;11.694;2022-07-23T07:01:05;6.62;;;6.12;;
16502;SDS011;53067;48.114;11.694;2022-07-23T07:03:32;6.20;;;5.70;;
16502;SDS011;53067;48.114;11.694;2022-07-23T07:06:00;6.15;;;5.72;;
16502;SDS011;53067;48.114;11.694;2022-07-23T07:08:28;5.72;;;5.33;;
16502;SDS011;53067;48.114;11.694;2022-07-23T07:10:56;5.80;;;5.30;;
16502;SDS011;53067;48.114;11.694;2022-07-23T07:13:23;6.12;;;5.62;;
16502;SDS011;53067;48.114;11.694;2022-07-23T07:15:51;5.90;;;5.50;;
16502;SDS011;53067;48.114;11.694;2022-07-23T07:18:18;6.17;;;5.70;;
16502;SDS011;53067;48.114;11.694;2022-07-23T07:20:46;5.55;;;5.15;;
16502;SDS011;53067;48.114;11.694;2022-07-23T07:23:13;5.83;;;5.42;;
16502;SDS011;53067;48.114;11.694;2022-07-23T07:25:41;5.75;;;5.22;;
16502;SDS011;53067;48.114;11.694;2022-07-23T07:30:55;5.83;;;5.30;;
16502;SDS011;53067;48.114;11.694;2022-07-23T07:33:23;6.08;;;5.60;;
16502;SDS011;53067;48.114;11.694;2022-07-23T07:35:50;6.05;;;5.55;;
16502;SDS011;53067;48.114;11.694;2022-07-23T07:38:18;6.60;;;6.15;;
16502;SDS011;53067;48.114;11.694;2022-07-23T07:40:45;6.47;;;5.80;;
16502;SDS011;53067;48.114;11.694;2022-07-23T07:43:13;6.33;;;5.83;;
16502;SDS011;53067;48.114;11.694;2022-07-23T07:45:40;6.53;;;5.92;;
16502;SDS011;53067;48.114;11.694;2022-07-23T07:48:08;6.47;;;5.90;;
16502;SDS011;53067;48.114;11.694;2022-07-23T07:50:36;5.60;;;5.20;;
16502;SDS011;53067;48.114;11.694;2022-07-23T07:53:03;6.72;;;6.12;;
16502;SDS011;53067;48.114;11.694;2022-07-23T07:55:31;5.95;;;5.53;;
16502;SDS011;53067;48.114;11.694;2022-07-23T07:57:58;6.80;;;6.12;;
16502;SDS011;53067;48.114;11.694;2022-07-23T08:00:26;6.85;;;6.35;;
16502;SDS011;53067;48.114;11.694;2022-07-23T08:02:54;6.12;;;5.65;;
16502;SDS011;53067;48.114;11.694;2022-07-23T08:05:26;6.00;;;5.60;;
16502;SDS011;53067;48.114;11.694;2022-07-23T08:07:56;7.00;;;6.47;;
16502;SDS011;53067;48.114;11.694;2022-07-23T08:10:24;6.42;;;6.03;;
16502;SDS011;53067;48.114;11.694;2022-07-23T08:12:54;6.17;;;5.80;;
16502;SDS011;53067;48.114;11.694;2022-07-23T08:15:27;6.30;;;5.90;;
16502;SDS011;53067;48.114;11.694;2022-07-23T08:17:56;7.20;;;6.60;;
16502;SDS011;53067;48.114;11.694;2022-07-23T08:20:24;6.60;;;6.00;;
16502;SDS011;53067;48.114;11.694;2022-07-23T08:22:59;7.10;;;6.50;;
16502;SDS011;53067;48.114;11.694;2022-07-23T08:25:30;7.10;;;6.50;;
16502;SDS011;53067;48.114;11.694;2022-07-23T08:28:06;6.30;;;5.80;;
16502;SDS011;53067;48.114;11.694;2022-07-23T08:30:35;6.70;;;5.87;;
16502;SDS011;53067;48.114;11.694;2022-07-23T08:33:05;6.58;;;6.08;;
16502;SDS011;53067;48.114;11.694;2022-07-23T08:35:36;6.17;;;5.78;;
16502;SDS011;53067;48.114;11.694;2022-07-23T08:38:07;6.67;;;5.60;;
16502;SDS011;53067;48.114;11.694;2022-07-23T08:40:37;6.50;;;6.00;;
16502;SDS011;53067;48.114;11.694;2022-07-23T08:43:07;6.30;;;5.80;;
16502;SDS011;53067;48.114;11.694;2022-07-23T08:45:38;6.90;;;6.30;;
16502;SDS011;53067;48.114;11.694;2022-07-23T08:48:08;6.33;;;5.83;;
16502;SDS011;53067;48.114;11.694;2022-07-23T08:50:37;5.87;;;5.47;;
16502;SDS011;53067;48.114;11.694;2022-07-23T08:53:26;6.90;;;6.30;;
16502;SDS011;53067;48.114;11.694;2022-07-23T08:55:56;6.40;;;6.00;;
16502;SDS011;53067;48.114;11.694;2022-07-23T08:58:27;6.10;;;5.70;;
16502;SDS011;53067;48.114;11.694;2022-07-23T09:00:54;6.20;;;5.80;;
16502;SDS011;53067;48.114;11.694;2022-07-23T09:03:23;6.50;;;5.90;;
16502;SDS011;53067;48.114;11.694;2022-07-23T09:05:53;6.45;;;5.72;;
16502;SDS011;53067;48.114;11.694;2022-07-23T09:08:23;6.05;;;5.65;;
16502;SDS011;53067;48.114;11.694;2022-07-23T09:10:54;6.37;;;5.97;;
16502;SDS011;53067;48.114;11.694;2022-07-23T09:16:23;6.75;;;6.15;;
16502;SDS011;53067;48.114;11.694;2022-07-23T09:18:53;6.70;;;5.90;;
16502;SDS011;53067;48.114;11.694;2022-07-23T09:21:23;8.25;;;6.53;;
16502;SDS011;53067;48.114;11.694;2022-07-23T09:24:02;6.37;;;5.85;;
16502;SDS011;53067;48.114;11.694;2022-07-23T09:26:32;6.40;;;5.90;;
16502;SDS011;53067;48.114;11.694;2022-07-23T09:29:09;6.67;;;5.83;;
16502;SDS011;53067;48.114;11.694;2022-07-23T09:31:52;6.15;;;5.65;;
16502;SDS011;53067;48.114;11.694;2022-07-23T09:34:23;6.08;;;5.60;;
16502;SDS011;53067;48.114;11.694;2022-07-23T09:36:56;6.10;;;5.70;;
16502;SDS011;53067;48.114;11.694;2022-07-23T09:39:28;5.75;;;5.40;;
16502;SDS011;53067;48.114;11.694;2022-07-23T09:41:57;6.90;;;5.75;;
16502;SDS011;53067;48.114;11.694;2022-07-23T09:44:27;5.75;;;5.35;;
16502;SDS011;53067;48.114;11.694;2022-07-23T09:46:58;6.08;;;5.58;;
16502;SDS011;53067;48.114;11.694;2022-07-23T09:49:27;6.67;;;6.28;;
16502;SDS011;53067;48.114;11.694;2022-07-23T09:51:55;6.00;;;5.47;;
16502;SDS011;53067;48.114;11.694;2022-07-23T09:54:28;6.28;;;5.78;;
16502;SDS011;53067;48.114;11.694;2022-07-23T09:57:04;5.53;;;5.15;;
16502;SDS011;53067;48.114;11.694;2022-07-23T09:59:35;6.00;;;5.50;;
16502;SDS011;53067;48.114;11.694;2022-07-23T10:02:23;5.85;;;5.45;;
16502;SDS011;53067;48.114;11.694;2022-07-23T10:04:53;6.00;;;5.60;;
16502;SDS011;53067;48.114;11.694;2022-07-23T10:07:21;5.62;;;5.22;;
16502;SDS011;53067;48.114;11.694;2022-07-23T10:10:09;6.03;;;5.50;;
16502;SDS011;53067;48.114;11.694;2022-07-23T10:12:37;5.45;;;4.95;;
16502;SDS011;53067;48.114;11.694;2022-07-23T10:15:12;4.62;;;4.33;;
16502;SDS011;53067;48.114;11.694;2022-07-23T10:17:40;5.50;;;5.00;;
16502;SDS011;53067;48.114;11.694;2022-07-23T10:20:08;5.70;;;5.20;;
16502;SDS011;53067;48.114;11.694;2022-07-23T10:22:40;5.20;;;4.80;;
16502;SDS011;53067;48.114;11.694;2022-07-23T10:25:26;5.55;;;5.15;;
16502;SDS011;53067;48.114;11.694;2022-07-23T10:31:14;5.45;;;5.05;;
16502;SDS011;53067;48.114;11.694;2022-07-23T10:33:49;5.22;;;4.75;;
16502;SDS011;53067;48.114;11.694;2022-07-23T10:36:48;4.80;;;4.43;;
16502;SDS011;53067;48.114;11.694;2022-07-23T10:39:28;4.87;;;4.50;;
16502;SDS011;53067;48.114;11.694;2022-07-23T10:44:43;5.80;;;5.30;;
16502;SDS011;53067;48.114;11.694;2022-07-23T10:47:10;4.95;;;4.60;;
16502;SDS011;53067;48.114;11.694;2022-07-23T10:55:42;5.87;;;5.28;;
16502;SDS011;53067;48.114;11.694;2022-07-23T10:58:17;4.95;;;4.55;;
16502;SDS011;53067;48.114;11.694;2022-07-23T11:00:45;4.67;;;4.37;;
16502;SDS011;53067;48.114;11.694;2022-07-23T11:04:14;5.00;;;4.60;;
16502;SDS011;53067;48.114;11.694;2022-07-23T11:05:55;4.58;;;4.28;;
16502;SDS011;53067;48.114;11.694;2022-07-23T11:08:22;5.15;;;4.75;;
16502;SDS011;53067;48.114;11.694;2022-07-23T11:10:51;5.20;;;4.70;;
16502;SDS011;53067;48.114;11.694;2022-07-23T11:23:57;5.05;;;4.75;;
16502;SDS011;53067;48.114;11.694;2022-07-23T11:32:18;4.87;;;4.58;;
16502;SDS011;53067;48.114;11.694;2022-07-23T11:34:48;4.92;;;4.55;;
16502;SDS011;53067;48.114;11.694;2022-07-23T11:40:05;6.97;;;5.28;;
16502;SDS011;53067;48.114;11.694;2022-07-23T11:42:37;5.17;;;4.78;;
16502;SDS011;53067;48.114;11.694;2022-07-23T11:45:06;5.17;;;4.78;;
16502;SDS011;53067;48.114;11.694;2022-07-23T11:47:35;5.05;;;4.65;;
16502;SDS011;53067;48.114;11.694;2022-07-23T11:50:04;5.25;;;4.92;;
16502;SDS011;53067;48.114;11.694;2022-07-23T11:52:32;5.33;;;4.92;;
16502;SDS011;53067;48.114;11.694;2022-07-23T11:55:01;5.33;;;4.83;;
16502;SDS011;53067;48.114;11.694;2022-07-23T11:57:34;4.92;;;4.62;;
16502;SDS011;53067;48.114;11.694;2022-07-23T12:00:11;5.62;;;5.12;;
16502;SDS011;53067;48.114;11.694;2022-07-23T12:02:37;5.37;;;4.90;;
16502;SDS011;53067;48.114;11.694;2022-07-23T12:05:06;5.85;;;5.33;;
16502;SDS011;53067;48.114;11.694;2022-07-23T12:07:37;6.22;;;5.60;;
16502;SDS011;53067;48.114;11.694;2022-07-23T12:10:18;5.58;;;5.17;;
16502;SDS011;53067;48.114;11.694;2022-07-23T12:12:52;5.40;;;5.00;;
16502;SDS011;53067;48.114;11.694;2022-07-23T12:15:31;5.62;;;5.22;;
16502;SDS011;53067;48.114;11.694;2022-07-23T12:18:00;5.45;;;5.03;;
16502;SDS011;53067;48.114;11.694;2022-07-23T12:20:30;5.83;;;5.25;;
16502;SDS011;53067;48.114;11.694;2022-07-23T12:23:00;5.20;;;4.80;;
16502;SDS011;53067;48.114;11.694;2022-07-23T12:25:34;5.65;;;5.22;;
16502;SDS011;53067;48.114;11.694;2022-07-23T12:28:13;5.87;;;5.37;;
16502;SDS011;53067;48.114;11.694;2022-07-23T12:30:44;5.70;;;5.30;;
16502;SDS011;53067;48.114;11.694;2022-07-23T12:33:27;5.95;;;5.45;;
16502;SDS011;53067;48.114;11.694;2022-07-23T12:36:00;6.20;;;5.60;;
16502;SDS011;53067;48.114;11.694;2022-07-23T12:38:36;6.17;;;5.60;;
16502;SDS011;53067;48.114;11.694;2022-07-23T12:41:09;5.40;;;5.00;;
16502;SDS011;53067;48.114;11.694;2022-07-23T12:43:38;6.05;;;5.53;;
16502;SDS011;53067;48.114;11.694;2022-07-23T12:46:14;5.60;;;5.10;;
16502;SDS011;53067;48.114;11.694;2022-07-23T12:51:19;5.83;;;5.35;;
16502;SDS011;53067;48.114;11.694;2022-07-23T12:53:52;5.47;;;5.12;;
16502;SDS011;53067;48.114;11.694;2022-07-23T12:56:35;5.42;;;5.03;;
16502;SDS011;53067;48.114;11.694;2022-07-23T12:59:07;5.60;;;5.30;;
16502;SDS011;53067;48.114;11.694;2022-07-23T13:01:39;5.70;;;5.20;;
16502;SDS011;53067;48.114;11.694;2022-07-23T13:04:18;6.42;;;5.85;;
16502;SDS011;53067;48.114;11.694;2022-07-23T13:06:46;6.17;;;5.55;;
16502;SDS011;53067;48.114;11.694;2022-07-23T13:09:22;6.47;;;5.97;;
16502;SDS011;53067;48.114;11.694;2022-07-23T13:11:52;5.58;;;5.17;;
16502;SDS011;53067;48.114;11.694;2022-07-23T13:14:21;5.87;;;5.37;;
16502;SDS011;53067;48.114;11.694;2022-07-23T13:16:50;5.97;;;5.45;;
16502;SDS011;53067;48.114;11.694;2022-07-23T13:19:19;5.62;;;5.12;;
16502;SDS011;53067;48.114;11.694;2022-07-23T13:22:07;5.80;;;5.30;;
16502;SDS011;53067;48.114;11.694;2022-07-23T13:24:35;5.85;;;5.28;;
16502;SDS011;53067;48.114;11.694;2022-07-23T13:27:02;6.00;;;5.60;;
16502;SDS011;53067;48.114;11.694;2022-07-23T13:29:31;5.87;;;5.40;;
16502;SDS011;53067;48.114;11.694;2022-07-23T13:31:59;5.58;;;5.17;;
16502;SDS011;53067;48.114;11.694;2022-07-23T13:34:26;5.60;;;5.20;;
16502;SDS011;53067;48.114;11.694;2022-07-23T13:36:54;5.72;;;5.33;;
16502;SDS011;53067;48.114;11.694;2022-07-23T13:39:21;6.10;;;5.37;;
16502;SDS011;53067;48.114;11.694;2022-07-23T13:41:49;6.15;;;5.75;;
16502;SDS011;53067;48.114;11.694;2022-07-23T13:44:17;6.42;;;5.92;;
16502;SDS011;53067;48.114;11.694;2022-07-23T13:46:44;9.00;;;7.78;;
16502;SDS011;53067;48.114;11.694;2022-07-23T13:49:12;11.08;;;8.05;;
16502;SDS011;53067;48.114;11.694;2022-07-23T13:51:40;7.25;;;6.42;;
16502;SDS011;53067;48.114;11.694;2022-07-23T13:54:07;6.50;;;5.90;;
16502;SDS011;53067;48.114;11.694;2022-07-23T13:56:35;6.37;;;5.78;;
16502;SDS011;53067;48.114;11.694;2022-07-23T13:59:03;5.97;;;5.58;;
16502;SDS011;53067;48.114;11.694;2022-07-23T14:04:17;6.00;;;5.50;;
16502;SDS011;53067;48.114;11.694;2022-07-23T14:06:45;5.90;;;5.50;;
16502;SDS011;53067;48.114;11.694;2022-07-23T14:09:12;6.33;;;5.72;;
16502;SDS011;53067;48.114;11.694;2022-07-23T14:11:40;5.37;;;5.08;;
16502;SDS011;53067;48.114;11.694;2022-07-23T14:14:08;5.42;;;5.03;;
16502;SDS011;53067;48.114;11.694;2022-07-23T14:16:35;5.62;;;5.22;;
16502;SDS011;53067;48.114;11.694;2022-07-23T14:19:03;5.87;;;5.45;;
16502;SDS011;53067;48.114;11.694;2022-07-23T14:21:30;5.90;;;5.25;;
16502;SDS011;53067;48.114;11.694;2022-07-23T14:23:58;5.20;;;4.90;;
16502;SDS011;53067;48.114;11.694;2022-07-23T14:26:25;5.97;;;5.47;;
16502;SDS011;53067;48.114;11.694;2022-07-23T14:28:53;5.85;;;5.35;;
16502;SDS011;53067;48.114;11.694;2022-07-23T14:31:21;5.78;;;5.22;;
16502;SDS011;53067;48.114;11.694;2022-07-23T14:33:48;5.55;;;5.15;;
16502;SDS011;53067;48.114;11.694;2022-07-23T14:36:16;6.03;;;5.53;;
16502;SDS011;53067;48.114;11.694;2022-07-23T14:38:44;6.17;;;5.67;;
16502;SDS011;53067;48.114;11.694;2022-07-23T14:41:11;5.70;;;5.20;;
16502;SDS011;53067;48.114;11.694;2022-07-23T14:43:39;6.20;;;5.70;;
16502;SDS011;53067;48.114;11.694;2022-07-23T14:46:06;5.55;;;5.15;;
16502;SDS011;53067;48.114;11.694;2022-07-23T14:48:34;5.47;;;5.08;;
16502;SDS011;53067;48.114;11.694;2022-07-23T14:51:03;6.05;;;5.55;;
16502;SDS011;53067;48.114;11.694;2022-07-23T14:53:31;5.80;;;5.40;;
16502;SDS011;53067;48.114;11.694;2022-07-23T14:55:59;6.10;;;5.60;;
16502;SDS011;53067;48.114;11.694;2022-07-23T14:58:26;5.83;;;5.42;;
16502;SDS011;53067;48.114;11.694;2022-07-23T15:00:55;6.05;;;5.65;;
16502;SDS011;53067;48.114;11.694;2022-07-23T15:03:23;6.25;;;5.65;;
16502;SDS011;53067;48.114;11.694;2022-07-23T15:05:50;5.72;;;5.33;;
16502;SDS011;53067;48.114;11.694;2022-07-23T15:08:18;6.15;;;5.65;;
16502;SDS011;53067;48.114;11.694;2022-07-23T15:10:45;5.62;;;5.22;;
16502;SDS011;53067;48.114;11.694;2022-07-23T15:13:13;6.15;;;5.65;;
16502;SDS011;53067;48.114;11.694;2022-07-23T15:15:40;6.40;;;5.87;;
16502;SDS011;53067;48.114;11.694;2022-07-23T15:18:09;6.25;;;5.75;;
16502;SDS011;53067;48.114;11.694;2022-07-23T15:20:37;6.53;;;6.12;;
16502;SDS011;53067;48.114;11.694;2022-07-23T15:23:05;6.33;;;5.83;;
16502;SDS011;53067;48.114;11.694;2022-07-23T15:25:32;6.33;;;5.92;;
16502;SDS011;53067;48.114;11.694;2022-07-23T15:28:01;6.47;;;5.92;;
16502;SDS011;53067;48.114;11.694;2022-07-23T15:30:29;6.22;;;5.67;;
16502;SDS011;53067;48.114;11.694;2022-07-23T15:32:56;6.53;;;5.92;;
16502;SDS011;53067;48.114;11.694;2022-07-23T15:35:24;7.00;;;6.40;;